createdAt,value
2019-03-17T00:00:04.181Z,31.77
2019-03-17T00:02:36.251Z,29.43
2019-03-17T00:05:07.317Z,31.07
2019-03-17T00:07:37.825Z,29.23
2019-03-17T00:10:08.173Z,33.23
2019-03-17T00:12:38.468Z,33.60
2019-03-17T00:15:08.797Z,31.23
2019-03-17T00:17:41.751Z,33.50
2019-03-17T00:20:11.781Z,32.77
2019-03-17T00:22:43.077Z,37.73
2019-03-17T00:25:13.759Z,35.50
2019-03-17T00:27:44.004Z,36.33
2019-03-17T00:30:14.494Z,31.73
2019-03-17T00:32:44.815Z,36.40
2019-03-17T00:35:15.074Z,39.70
2019-03-17T00:37:45.335Z,39.30
2019-03-17T00:40:15.633Z,33.13
2019-03-17T00:42:45.874Z,37.43
2019-03-17T00:45:16.273Z,30.83
2019-03-17T00:47:46.567Z,39.00
2019-03-17T00:50:16.857Z,33.50
2019-03-17T00:52:47.125Z,35.40
2019-03-17T00:55:17.433Z,38.73
2019-03-17T00:57:47.715Z,36.60
2019-03-17T01:00:18.564Z,37.83
2019-03-17T01:02:48.843Z,33.13
2019-03-17T01:05:19.781Z,32.80
2019-03-17T01:07:50.023Z,31.67
2019-03-17T01:10:20.505Z,28.97
2019-03-17T01:12:50.717Z,22.77
2019-03-17T01:15:20.979Z,23.23
2019-03-17T01:17:51.265Z,24.13
2019-03-17T01:20:21.571Z,23.57
2019-03-17T01:22:51.825Z,23.20
2019-03-17T01:25:22.385Z,26.43
2019-03-17T01:27:52.631Z,23.07
2019-03-17T01:30:23.209Z,24.60
2019-03-17T01:32:53.445Z,26.73
2019-03-17T01:35:23.753Z,24.67
2019-03-17T01:37:54.045Z,20.17
2019-03-17T01:40:24.316Z,21.10
2019-03-17T01:42:54.575Z,23.33
2019-03-17T01:45:25.152Z,21.27
2019-03-17T01:47:55.375Z,20.27
2019-03-17T01:50:27.118Z,23.80
2019-03-17T01:52:57.356Z,24.20
2019-03-17T01:55:28.175Z,21.73
2019-03-17T01:57:58.428Z,25.83
2019-03-17T02:00:28.946Z,22.43
2019-03-17T02:02:59.367Z,21.23
2019-03-17T02:05:29.990Z,23.87
2019-03-17T02:08:00.202Z,25.13
2019-03-17T02:10:30.805Z,21.60
2019-03-17T02:13:01.198Z,25.93
2019-03-17T02:15:31.511Z,22.50
2019-03-17T02:18:01.822Z,25.40
2019-03-17T02:20:32.002Z,23.60
2019-03-17T02:23:02.266Z,26.33
2019-03-17T02:25:32.527Z,25.10
2019-03-17T02:28:02.836Z,24.17
2019-03-17T02:30:33.162Z,25.43
2019-03-17T02:33:03.596Z,22.90
2019-03-17T02:35:39.366Z,25.40
2019-03-17T02:38:07.177Z,23.87
2019-03-17T02:40:37.683Z,22.93
2019-03-17T02:43:08.181Z,22.63
2019-03-17T02:45:38.419Z,25.67
2019-03-17T02:48:09.036Z,25.17
2019-03-17T02:50:44.808Z,22.13
2019-03-17T02:53:15.265Z,23.33
2019-03-17T02:55:45.518Z,27.97
2019-03-17T02:58:15.934Z,24.43
2019-03-17T03:00:46.515Z,25.23
2019-03-17T03:03:16.854Z,24.57
2019-03-17T03:05:54.689Z,25.23
2019-03-17T03:08:20.632Z,27.20
2019-03-17T03:10:50.895Z,27.57
2019-03-17T03:13:22.673Z,22.17
2019-03-17T03:15:53.180Z,23.10
2019-03-17T03:18:23.531Z,22.83
2019-03-17T03:20:53.734Z,26.30
2019-03-17T03:23:24.034Z,25.60
2019-03-17T03:25:54.561Z,25.70
2019-03-17T03:28:41.424Z,26.63
2019-03-17T03:31:11.655Z,24.03
2019-03-17T03:33:42.057Z,24.47
2019-03-17T03:36:12.371Z,23.67
2019-03-17T03:38:42.655Z,26.00
2019-03-17T03:41:12.919Z,26.90
2019-03-17T03:43:43.198Z,28.23
2019-03-17T03:46:13.482Z,26.10
2019-03-17T03:48:43.717Z,27.27
2019-03-17T03:51:14.223Z,26.77
2019-03-17T03:53:44.415Z,28.27
2019-03-17T03:56:14.660Z,27.90
2019-03-17T03:58:44.864Z,30.20
2019-03-17T04:01:15.165Z,29.23
2019-03-17T04:03:45.462Z,33.17
2019-03-17T04:06:26.213Z,30.97
2019-03-17T04:08:47.734Z,29.53
2019-03-17T04:11:17.993Z,29.97
2019-03-17T04:13:48.282Z,31.63
2019-03-17T04:16:18.518Z,32.40
2019-03-17T04:18:49.890Z,30.87
2019-03-17T04:21:20.304Z,34.73
2019-03-17T04:23:51.112Z,35.00
2019-03-17T04:26:21.397Z,34.17
2019-03-17T04:28:51.689Z,36.70
2019-03-17T04:31:22.065Z,33.13
2019-03-17T04:33:52.349Z,34.27
2019-03-17T04:36:22.732Z,36.60
2019-03-17T04:38:52.983Z,31.30
2019-03-17T04:41:23.189Z,35.70
2019-03-17T04:43:53.393Z,39.73
2019-03-17T04:46:23.835Z,36.23
2019-03-17T04:48:54.175Z,34.07
2019-03-17T04:51:25.475Z,34.20
2019-03-17T04:53:55.765Z,34.50
2019-03-17T04:56:26.011Z,37.20
2019-03-17T04:58:56.341Z,35.27
2019-03-17T05:01:26.705Z,35.77
2019-03-17T05:03:56.936Z,34.77
2019-03-17T05:06:27.456Z,39.83
2019-03-17T05:08:57.725Z,37.20
2019-03-17T05:11:28.037Z,37.37
2019-03-17T05:13:58.739Z,38.30
2019-03-17T05:16:28.953Z,34.30
2019-03-17T05:18:59.814Z,36.40
2019-03-17T05:21:30.073Z,36.67
2019-03-17T05:24:00.273Z,35.67
2019-03-17T05:26:31.015Z,35.13
2019-03-17T05:29:01.252Z,34.23
2019-03-17T05:31:31.528Z,34.50
2019-03-17T05:34:01.885Z,37.07
2019-03-17T05:36:32.205Z,34.97
2019-03-17T05:39:02.470Z,34.83
2019-03-17T05:41:32.982Z,37.40
2019-03-17T05:44:03.263Z,36.87
2019-03-17T05:46:33.639Z,35.37
2019-03-17T05:49:03.909Z,35.97
2019-03-17T05:51:34.260Z,33.80
2019-03-17T05:54:04.699Z,34.37
2019-03-17T05:56:35.182Z,37.33
2019-03-17T05:59:05.470Z,33.87
2019-03-17T06:01:36.927Z,35.77
2019-03-17T06:04:07.200Z,36.93
2019-03-17T06:06:37.550Z,33.63
2019-03-17T06:09:08.306Z,36.13
2019-03-17T06:11:38.596Z,37.70
2019-03-17T06:14:08.900Z,36.80
2019-03-17T06:16:39.429Z,35.70
2019-03-17T06:19:09.794Z,33.50
2019-03-17T06:21:40.288Z,32.43
2019-03-17T06:24:10.528Z,40.80
2019-03-17T06:26:40.861Z,36.13
2019-03-17T06:29:11.148Z,34.37
2019-03-17T06:31:42.069Z,35.23
2019-03-17T06:34:12.343Z,36.50
2019-03-17T06:36:42.678Z,33.63
2019-03-17T06:39:12.972Z,36.93
2019-03-17T06:41:43.232Z,34.80
2019-03-17T06:44:13.602Z,32.00
2019-03-17T06:46:43.874Z,33.13
2019-03-17T06:49:14.138Z,34.70
2019-03-17T06:51:44.412Z,31.80
2019-03-17T06:54:14.770Z,34.60
2019-03-17T06:56:45.056Z,36.37
2019-03-17T06:59:17.523Z,30.37
2019-03-17T07:01:47.306Z,30.23
2019-03-17T07:04:17.592Z,35.07
2019-03-17T07:06:47.938Z,30.97
2019-03-17T07:09:18.272Z,30.03
2019-03-17T07:11:48.594Z,31.80
2019-03-17T07:14:19.690Z,35.17
2019-03-17T07:16:50.008Z,31.40
2019-03-17T07:19:21.426Z,34.03
2019-03-17T07:21:52.341Z,31.27
2019-03-17T07:24:22.620Z,32.03
2019-03-17T07:26:52.890Z,26.97
2019-03-17T07:29:23.326Z,29.53
2019-03-17T07:31:53.627Z,30.27
2019-03-17T07:34:24.256Z,26.93
2019-03-17T07:36:54.913Z,28.90
2019-03-17T07:39:25.438Z,27.00
2019-03-17T07:41:55.831Z,27.67
2019-03-17T07:44:26.496Z,27.40
2019-03-17T07:46:58.418Z,25.00
2019-03-17T07:49:28.762Z,23.47
2019-03-17T07:51:59.014Z,25.97
2019-03-17T07:54:29.544Z,19.83
2019-03-17T07:56:59.739Z,22.27
2019-03-17T07:59:29.926Z,21.87
2019-03-17T08:02:00.243Z,20.60
2019-03-17T08:04:42.007Z,19.63
2019-03-17T08:07:02.427Z,21.00
2019-03-17T08:09:32.697Z,20.47
2019-03-17T08:12:03.391Z,19.87
2019-03-17T08:14:33.767Z,17.60
2019-03-17T08:17:03.983Z,16.80
2019-03-17T08:19:34.647Z,18.03
2019-03-17T08:22:04.917Z,15.87
2019-03-17T08:24:35.208Z,14.93
2019-03-17T08:27:05.510Z,17.27
2019-03-17T08:29:36.126Z,16.80
2019-03-17T08:32:06.342Z,15.57
2019-03-17T08:34:36.658Z,16.67
2019-03-17T08:37:07.607Z,16.37
2019-03-17T08:39:37.967Z,14.77
2019-03-17T08:42:08.615Z,16.90
2019-03-17T08:44:39.239Z,15.40
2019-03-17T08:47:10.059Z,15.83
2019-03-17T08:49:40.334Z,15.63
2019-03-17T08:52:10.881Z,14.87
2019-03-17T08:54:41.271Z,17.10
2019-03-17T08:57:11.513Z,16.43
2019-03-17T08:59:42.085Z,16.33
2019-03-17T09:02:12.588Z,16.20
2019-03-17T09:04:42.965Z,17.03
2019-03-17T09:07:14.267Z,20.80
2019-03-17T09:09:44.674Z,17.87
2019-03-17T09:12:15.120Z,18.90
2019-03-17T09:14:45.518Z,14.80
2019-03-17T09:17:16.097Z,16.67
2019-03-17T09:19:46.503Z,19.07
2019-03-17T09:22:17.251Z,18.70
2019-03-17T09:24:47.809Z,16.40
2019-03-17T09:27:18.407Z,17.07
2019-03-17T09:29:48.689Z,16.40
2019-03-17T09:32:19.045Z,16.27
2019-03-17T09:34:49.278Z,14.13
2019-03-17T09:37:19.607Z,15.27
2019-03-17T09:39:50.857Z,15.70
2019-03-17T09:42:21.090Z,14.90
2019-03-17T09:44:51.467Z,13.33
2019-03-17T09:47:21.934Z,14.93
2019-03-17T09:49:52.406Z,12.60
2019-03-17T09:52:25.221Z,12.50
2019-03-17T09:54:55.797Z,10.93
2019-03-17T09:57:26.187Z,11.40
2019-03-17T09:59:56.507Z,13.93
2019-03-17T10:02:26.844Z,10.90
2019-03-17T10:04:57.241Z,12.10
2019-03-17T10:07:27.525Z,10.57
2019-03-17T10:09:57.851Z,12.10
2019-03-17T10:12:28.170Z,12.00
2019-03-17T10:14:59.501Z,12.00
2019-03-17T10:17:29.812Z,12.17
2019-03-17T10:20:00.374Z,14.80
2019-03-17T10:22:32.214Z,14.13
2019-03-17T10:25:02.519Z,15.20
2019-03-17T10:27:32.781Z,11.77
2019-03-17T10:30:03.086Z,14.07
2019-03-17T10:32:33.862Z,15.10
2019-03-17T10:35:04.279Z,15.47
2019-03-17T10:37:34.906Z,11.53
2019-03-17T10:40:06.685Z,12.17
2019-03-17T10:42:36.955Z,9.93
2019-03-17T10:45:07.395Z,10.67
2019-03-17T10:47:37.790Z,10.83
2019-03-17T10:50:10.595Z,11.13
2019-03-17T10:52:40.838Z,9.17
2019-03-17T10:55:12.657Z,11.23
2019-03-17T10:57:43.026Z,8.80
2019-03-17T11:00:14.818Z,9.70
2019-03-17T11:02:45.104Z,10.00
2019-03-17T11:05:16.702Z,10.50
2019-03-17T11:07:47.338Z,11.17
2019-03-17T11:10:17.592Z,9.33
2019-03-17T11:12:47.879Z,9.43
2019-03-17T11:15:19.857Z,11.20
2019-03-17T11:17:50.147Z,8.30
2019-03-17T11:20:20.940Z,9.00
2019-03-17T11:22:51.390Z,9.53
2019-03-17T11:25:22.878Z,9.47
2019-03-17T11:27:53.149Z,10.23
2019-03-17T11:30:23.659Z,10.27
2019-03-17T11:32:53.932Z,7.23
2019-03-17T11:35:24.410Z,9.53
2019-03-17T11:37:54.725Z,8.43
2019-03-17T11:40:25.082Z,8.47
2019-03-17T11:42:55.355Z,7.40
2019-03-17T11:45:25.677Z,10.10
2019-03-17T11:47:55.908Z,7.67
2019-03-17T11:50:26.291Z,7.73
2019-03-17T11:52:56.557Z,8.50
2019-03-17T11:55:26.864Z,8.73
2019-03-17T11:57:57.268Z,6.97
2019-03-17T12:00:27.634Z,10.10
2019-03-17T12:02:57.905Z,6.93
2019-03-17T12:05:28.299Z,7.87
2019-03-17T12:07:58.641Z,13.10
2019-03-17T12:10:28.927Z,7.33
2019-03-17T12:12:59.187Z,9.80
2019-03-17T12:15:29.533Z,6.87
2019-03-17T12:17:59.880Z,6.73
2019-03-17T12:20:30.218Z,8.43
2019-03-17T12:23:00.479Z,8.60
2019-03-17T12:25:30.816Z,8.23
2019-03-17T12:28:01.214Z,8.25
2019-03-17T12:30:31.578Z,7.87
2019-03-17T12:33:01.840Z,7.00
2019-03-17T12:35:32.417Z,6.40
2019-03-17T12:38:02.590Z,9.13
2019-03-17T12:40:33.237Z,5.53
2019-03-17T12:43:03.496Z,6.27
2019-03-17T12:45:34.271Z,7.90
2019-03-17T12:48:04.581Z,6.43
2019-03-17T12:50:35.046Z,7.63
2019-03-17T12:53:07.915Z,6.70
2019-03-17T12:55:38.399Z,5.67
2019-03-17T12:58:08.662Z,7.43
2019-03-17T13:00:38.976Z,6.07
2019-03-17T13:03:09.257Z,7.70
2019-03-17T13:05:39.757Z,9.13
2019-03-17T13:08:10.167Z,6.07
2019-03-17T13:10:41.980Z,5.50
2019-03-17T13:13:12.281Z,6.13
2019-03-17T13:15:43.093Z,4.83
2019-03-17T13:18:14.061Z,10.20
2019-03-17T13:20:44.655Z,8.75
2019-03-17T13:23:14.913Z,5.83
2019-03-17T13:25:45.519Z,8.40
2019-03-17T13:28:15.774Z,5.87
2019-03-17T13:30:46.281Z,8.07
2019-03-17T13:33:16.575Z,7.03
2019-03-17T13:35:47.338Z,7.42
2019-03-17T13:38:17.841Z,8.20
2019-03-17T13:40:48.125Z,7.78
2019-03-17T13:43:18.538Z,5.50
2019-03-17T13:45:49.461Z,7.10
2019-03-17T13:48:19.830Z,6.80
2019-03-17T13:50:50.121Z,6.27
2019-03-17T13:53:22.753Z,5.40
2019-03-17T13:55:52.843Z,6.07
2019-03-17T13:58:23.092Z,5.92
2019-03-17T14:00:53.564Z,6.47
2019-03-17T14:03:23.802Z,7.40
2019-03-17T14:05:55.197Z,7.23
2019-03-17T14:08:25.570Z,6.25
2019-03-17T14:10:58.272Z,6.75
2019-03-17T14:13:28.955Z,5.53
2019-03-17T14:15:59.456Z,5.43
2019-03-17T14:18:30.254Z,12.10
2019-03-17T14:21:01.194Z,5.77
2019-03-17T14:23:31.482Z,5.05
2019-03-17T14:26:01.798Z,5.75
2019-03-17T14:28:32.800Z,4.93
2019-03-17T14:31:03.730Z,4.57
2019-03-17T14:33:34.031Z,6.37
2019-03-17T14:36:04.281Z,4.78
2019-03-17T14:39:37.834Z,5.20
2019-03-17T14:42:08.165Z,5.80
2019-03-17T14:44:38.886Z,4.90
2019-03-17T14:47:09.332Z,5.57
2019-03-17T14:49:39.636Z,6.55
2019-03-17T14:52:09.826Z,6.65
2019-03-17T14:54:40.122Z,5.83
2019-03-17T14:57:10.410Z,8.88
2019-03-17T14:59:40.659Z,7.20
2019-03-17T15:02:10.938Z,5.25
2019-03-17T15:04:41.306Z,6.27
2019-03-17T15:07:11.752Z,5.15
2019-03-17T15:09:45.580Z,6.42
2019-03-17T15:12:15.855Z,5.37
2019-03-17T15:14:46.090Z,9.18
2019-03-17T15:17:16.352Z,5.62
2019-03-17T15:19:46.663Z,6.30
2019-03-17T15:22:16.948Z,4.67
2019-03-17T15:24:47.241Z,5.97
2019-03-17T15:27:17.514Z,6.58
2019-03-17T15:29:48.094Z,6.33
2019-03-17T15:32:18.513Z,5.62
2019-03-17T15:34:48.820Z,4.57
2019-03-17T15:37:19.370Z,10.30
2019-03-17T15:39:49.872Z,5.73
2019-03-17T15:42:20.131Z,5.67
2019-03-17T15:44:50.409Z,4.60
2019-03-17T15:47:20.883Z,5.28
2019-03-17T15:49:51.123Z,6.60
2019-03-17T15:52:21.559Z,7.03
2019-03-17T15:54:51.824Z,8.93
2019-03-17T15:57:22.109Z,10.60
2019-03-17T15:59:52.685Z,9.18
2019-03-17T16:02:22.953Z,10.13
2019-03-17T16:04:53.204Z,5.80
2019-03-17T16:07:23.557Z,6.53
2019-03-17T16:09:53.806Z,6.78
2019-03-17T16:12:24.123Z,9.03
2019-03-17T16:14:54.419Z,9.33
2019-03-17T16:17:25.087Z,6.67
2019-03-17T16:19:55.373Z,7.80
2019-03-17T16:22:25.768Z,12.73
2019-03-17T16:24:57.029Z,7.77
2019-03-17T16:27:27.410Z,10.28
2019-03-17T16:29:57.726Z,6.60
2019-03-17T16:32:28.109Z,7.67
2019-03-17T16:34:58.376Z,6.63
2019-03-17T16:37:29.247Z,6.60
2019-03-17T16:39:59.519Z,10.40
2019-03-17T16:42:30.083Z,8.33
2019-03-17T16:45:00.390Z,9.93
2019-03-17T16:47:30.727Z,7.50
2019-03-17T16:50:01.169Z,11.00
2019-03-17T16:52:31.523Z,13.70
2019-03-17T16:55:01.828Z,8.33
2019-03-17T16:57:32.204Z,8.83
2019-03-17T17:00:02.723Z,10.10
2019-03-17T17:02:33.157Z,7.33
2019-03-17T17:05:03.598Z,9.13
2019-03-17T17:07:35.075Z,10.30
2019-03-17T17:10:06.110Z,11.17
2019-03-17T17:12:36.485Z,10.77
2019-03-17T17:15:10.374Z,11.30
2019-03-17T17:17:41.079Z,10.87
2019-03-17T17:20:14.326Z,11.90
2019-03-17T17:22:45.119Z,11.03
2019-03-17T17:25:15.903Z,18.70
2019-03-17T17:27:46.327Z,14.10
2019-03-17T17:30:17.328Z,14.90
2019-03-17T17:32:47.945Z,11.90
2019-03-17T17:35:18.558Z,10.83
2019-03-17T17:37:49.213Z,14.87
2019-03-17T17:40:19.781Z,11.60
2019-03-17T17:42:50.087Z,13.73
2019-03-17T17:45:20.536Z,12.03
2019-03-17T17:47:50.958Z,15.33
2019-03-17T17:50:21.731Z,13.23
2019-03-17T17:52:52.020Z,11.33
2019-03-17T17:55:22.447Z,12.93
2019-03-17T17:57:53.294Z,12.17
2019-03-17T18:00:24.540Z,15.97
2019-03-17T18:02:55.035Z,14.70
2019-03-17T18:05:25.739Z,12.57
2019-03-17T18:07:56.474Z,13.20
2019-03-17T18:10:27.206Z,11.30
2019-03-17T18:12:57.514Z,13.27
2019-03-17T18:15:28.046Z,14.60
2019-03-17T18:17:58.654Z,13.73
2019-03-17T18:20:28.951Z,16.50
2019-03-17T18:22:59.638Z,19.83
2019-03-17T18:25:29.963Z,18.03
2019-03-17T18:28:00.366Z,18.20
2019-03-17T18:30:30.787Z,20.53
2019-03-17T18:33:02.046Z,21.07
2019-03-17T18:35:32.343Z,19.43
2019-03-17T18:38:02.591Z,17.47
2019-03-17T18:40:34.307Z,19.73
2019-03-17T18:43:04.566Z,21.53
2019-03-17T18:45:35.258Z,20.57
2019-03-17T18:48:05.550Z,19.20
2019-03-17T18:50:35.830Z,21.07
2019-03-17T18:53:06.136Z,19.73
2019-03-17T18:55:36.417Z,16.40
2019-03-17T18:58:07.088Z,16.87
2019-03-17T19:00:37.344Z,21.57
2019-03-17T19:03:08.322Z,20.50
2019-03-17T19:05:38.768Z,16.53
2019-03-17T19:08:09.062Z,19.17
2019-03-17T19:10:39.370Z,18.87
2019-03-17T19:13:09.714Z,17.73
2019-03-17T19:15:40.094Z,23.93
2019-03-17T19:18:10.639Z,18.07
2019-03-17T19:20:41.217Z,21.50
2019-03-17T19:23:17.352Z,18.77
2019-03-17T19:25:51.124Z,23.27
2019-03-17T19:28:21.510Z,18.50
2019-03-17T19:30:51.788Z,20.67
2019-03-17T19:33:22.955Z,18.03
2019-03-17T19:35:55.076Z,20.20
2019-03-17T19:38:25.525Z,22.67
2019-03-17T19:40:56.146Z,21.80
2019-03-17T19:43:26.505Z,21.00
2019-03-17T19:45:56.978Z,20.70
2019-03-17T19:48:27.303Z,20.10
2019-03-17T19:50:57.908Z,20.57
2019-03-17T19:53:28.194Z,21.53
2019-03-17T19:55:58.534Z,25.07
2019-03-17T19:58:28.814Z,24.93
2019-03-17T20:00:59.125Z,21.47
2019-03-17T20:03:29.527Z,18.93
2019-03-17T20:06:02.490Z,18.53
2019-03-17T20:08:32.274Z,19.53
2019-03-17T20:11:02.996Z,18.80
2019-03-17T20:13:33.314Z,17.40
2019-03-17T20:16:03.728Z,22.03
2019-03-17T20:18:34.571Z,19.40
2019-03-17T20:21:04.931Z,19.50
2019-03-17T20:23:35.709Z,25.13
2019-03-17T20:26:06.634Z,21.83
2019-03-17T20:28:37.135Z,19.50
2019-03-17T20:31:07.423Z,19.20
2019-03-17T20:33:38.439Z,25.00
2019-03-17T20:36:08.816Z,26.17
2019-03-17T20:38:39.490Z,24.43
2019-03-17T20:41:10.125Z,30.20
2019-03-17T20:43:40.565Z,32.83
2019-03-17T20:46:10.996Z,28.37
2019-03-17T20:48:41.333Z,32.47
2019-03-17T20:51:11.621Z,28.80
2019-03-17T20:53:43.295Z,29.33
2019-03-17T20:56:13.670Z,27.23
2019-03-17T20:58:43.993Z,36.47
2019-03-17T21:01:14.271Z,35.40
2019-03-17T21:03:44.585Z,27.33
2019-03-17T21:06:15.644Z,32.73
2019-03-17T21:08:46.122Z,29.57
2019-03-17T21:11:17.577Z,32.37
2019-03-17T21:13:48.032Z,28.23
2019-03-17T21:16:18.310Z,31.77
2019-03-17T21:18:49.141Z,29.77
2019-03-17T21:21:19.466Z,29.57
2019-03-17T21:23:49.821Z,31.50
2019-03-17T21:26:20.255Z,28.43
2019-03-17T21:28:50.555Z,25.53
2019-03-17T21:31:20.872Z,29.10
2019-03-17T21:33:51.231Z,25.93
2019-03-17T21:36:22.160Z,23.03
2019-03-17T21:38:52.456Z,25.83
2019-03-17T21:41:24.011Z,20.93
2019-03-17T21:43:59.501Z,26.83
2019-03-17T21:46:29.469Z,20.37
2019-03-17T21:49:01.223Z,22.07
2019-03-17T21:51:31.749Z,23.20
2019-03-17T21:54:02.181Z,19.80
2019-03-17T21:56:32.967Z,21.90
2019-03-17T21:59:03.750Z,20.37
2019-03-17T22:01:34.338Z,22.77
2019-03-17T22:04:04.640Z,19.73
2019-03-17T22:06:36.312Z,21.57
2019-03-17T22:09:07.839Z,19.43
2019-03-17T22:11:38.442Z,19.33
2019-03-17T22:14:12.344Z,20.60
2019-03-17T22:16:40.912Z,33.40
2019-03-17T22:19:11.548Z,21.27
2019-03-17T22:21:41.860Z,25.30
2019-03-17T22:24:12.216Z,24.80
2019-03-17T22:26:42.850Z,29.73
2019-03-17T22:29:13.247Z,28.07
2019-03-17T22:31:43.677Z,33.37
2019-03-17T22:34:14.206Z,32.83
2019-03-17T22:36:44.540Z,27.13
2019-03-17T22:39:14.789Z,29.77
2019-03-17T22:41:45.512Z,26.97
2019-03-17T22:44:24.151Z,27.23
2019-03-17T22:46:47.738Z,26.40
2019-03-17T22:49:18.078Z,28.03
2019-03-17T22:51:48.409Z,29.10
2019-03-17T22:54:18.751Z,22.07
2019-03-17T22:56:49.086Z,22.70
2019-03-17T22:59:19.728Z,15.43
2019-03-17T23:01:50.242Z,20.10
2019-03-17T23:04:25.446Z,20.77
2019-03-17T23:06:56.292Z,16.07
2019-03-17T23:09:27.187Z,12.83
2019-03-17T23:11:58.442Z,14.60
2019-03-17T23:14:36.538Z,13.37
2019-03-17T23:17:02.114Z,9.30
2019-03-17T23:19:32.845Z,8.93
2019-03-17T23:22:03.510Z,10.87
2019-03-17T23:24:34.042Z,12.97
2019-03-17T23:27:05.286Z,9.97
2019-03-17T23:29:35.989Z,8.00
2019-03-17T23:32:07.237Z,4.73
2019-03-17T23:34:38.040Z,4.50
2019-03-17T23:37:08.499Z,5.23
2019-03-17T23:39:39.288Z,4.73
2019-03-17T23:42:09.757Z,3.03
2019-03-17T23:44:48.819Z,6.37
2019-03-17T23:47:12.900Z,2.50
2019-03-17T23:49:44.140Z,5.40
2019-03-17T23:52:14.867Z,3.87
2019-03-17T23:54:46.030Z,6.43
2019-03-17T23:57:16.630Z,3.60
2019-03-17T23:59:47.908Z,2.83
